Time;durP1;ratioP1;P1;durP2;ratioP2;P2;SDS_P1;SDS_P2;PMS_P1;PMS_P2;Temp;Humidity;BMP_temperature;BMP_pressure;BME280_temperature;BME280_humidity;BME280_pressure;Samples;Min_cycle;Max_cycle;Signal;HPM_P1;HPM_P2
2022/03/20 00:02:11;;;;;;;12.85;7.88;;;;;;;8.13;50.64;103637.47;5189595;28;20427;-49
2022/03/20 00:04:44;;;;;;;11.05;6.65;;;;;;;8.17;50.49;103641.66;5199360;27;20397;-56
2022/03/20 00:07:16;;;;;;;10.27;6.90;;;;;;;8.15;50.86;103635.63;5199488;28;20452;-48
2022/03/20 00:09:52;;;;;;;9.38;6.80;;;;;;;8.03;50.84;103615.09;5194268;28;20512;-52
2022/03/20 00:12:24;;;;;;;9.02;6.07;;;;;;;8.11;50.96;103612.97;5192467;28;20428;-52
2022/03/20 00:14:57;;;;;;;10.30;6.90;;;;;;;8.08;51.04;103628.91;5188599;28;20484;-63
2022/03/20 00:17:31;;;;;;;12.80;6.70;;;;;;;8.06;51.07;103625.50;5197297;28;20895;-50
2022/03/20 00:20:05;;;;;;;9.38;5.97;;;;;;;8.05;51.36;103629.91;5197682;28;20497;-54
2022/03/20 00:22:38;;;;;;;13.65;7.70;;;;;;;8.04;51.09;103619.44;5202320;28;20506;-61
2022/03/20 00:25:11;;;;;;;11.63;7.32;;;;;;;8.03;51.32;103617.72;5187229;28;20417;-54
2022/03/20 00:27:44;;;;;;;16.92;7.90;;;;;;;8.03;51.29;103609.84;5198671;28;20429;-48
2022/03/20 00:30:16;;;;;;;9.77;7.70;;;;;;;8.03;51.13;103615.09;5194202;28;20482;-52
2022/03/20 00:32:50;;;;;;;12.97;8.20;;;;;;;7.96;51.49;103606.59;5203795;28;20545;-54
2022/03/20 00:35:23;;;;;;;12.20;8.70;;;;;;;7.94;51.46;103599.69;5192238;28;20497;-49
2022/03/20 00:37:55;;;;;;;11.67;7.83;;;;;;;7.94;51.44;103600.53;5203182;28;20522;-58
2022/03/20 00:40:28;;;;;;;9.73;7.57;;;;;;;7.94;51.32;103600.53;5197279;28;20420;-55
2022/03/20 00:43:00;;;;;;;12.23;7.72;;;;;;;7.91;51.56;103595.41;5200117;28;20509;-48
2022/03/20 00:45:33;;;;;;;14.05;7.88;;;;;;;7.89;51.48;103591.97;5191344;28;20411;-53
2022/03/20 00:48:08;;;;;;;11.80;8.43;;;;;;;7.87;51.51;103596.47;5189699;28;20494;-49
2022/03/20 00:50:41;;;;;;;14.75;9.63;;;;;;;7.81;51.68;103594.94;5198622;28;20890;-49
2022/03/20 00:53:13;;;;;;;14.98;9.32;;;;;;;7.86;51.63;103585.06;5196698;28;20443;-50
2022/03/20 00:55:46;;;;;;;15.57;9.65;;;;;;;7.84;51.65;103576.41;5189711;28;20873;-52
2022/03/20 00:58:18;;;;;;;14.65;9.80;;;;;;;7.80;51.38;103587.97;5193882;28;20429;-51
2022/03/20 01:00:51;;;;;;;13.15;9.00;;;;;;;7.78;51.71;103571.41;5190820;28;20425;-53
2022/03/20 01:03:25;;;;;;;15.02;9.98;;;;;;;7.69;51.99;103569.16;5177916;28;20413;-53
2022/03/20 01:05:58;;;;;;;14.35;9.93;;;;;;;7.73;51.84;103565.47;5186621;28;20841;-51
2022/03/20 01:08:30;;;;;;;13.35;9.35;;;;;;;7.71;51.68;103555.91;5189727;28;20445;-57
2022/03/20 01:11:03;;;;;;;18.42;10.75;;;;;;;7.71;51.97;103562.06;5193464;28;20407;-50
2022/03/20 01:13:36;;;;;;;13.77;10.20;;;;;;;7.67;51.69;103557.81;5190813;28;20471;-50
2022/03/20 01:16:09;;;;;;;14.05;9.90;;;;;;;7.65;52.02;103549.16;5198574;28;20450;-51
2022/03/20 01:18:42;;;;;;;13.33;9.93;;;;;;;7.65;51.92;103543.91;5201561;28;20842;-50
2022/03/20 01:21:15;;;;;;;14.65;9.43;;;;;;;7.66;51.75;103542.13;5189757;28;20433;-57
2022/03/20 01:23:48;;;;;;;11.82;8.75;;;;;;;7.64;51.82;103529.03;5206000;28;20505;-66
2022/03/20 01:26:21;;;;;;;16.45;10.20;;;;;;;7.60;52.01;103537.97;5189905;28;21123;-57
2022/03/20 01:28:53;;;;;;;17.80;10.50;;;;;;;7.55;52.14;103532.03;5198245;28;20500;-50
2022/03/20 01:31:28;;;;;;;14.00;10.85;;;;;;;7.51;52.14;103528.69;5194097;28;20862;-53
2022/03/20 01:34:02;;;;;;;15.90;10.98;;;;;;;7.26;52.29;103484.16;5198639;28;20435;-55
2022/03/20 01:36:34;;;;;;;13.70;9.93;;;;;;;7.46;52.43;103520.13;5201158;28;20509;-56
2022/03/20 01:39:07;;;;;;;14.23;9.18;;;;;;;7.46;52.14;103519.25;5190151;28;20824;-52
2022/03/20 01:41:39;;;;;;;13.18;8.70;;;;;;;7.41;52.11;103510.72;5186407;28;20419;-49
2022/03/20 01:44:12;;;;;;;15.75;10.00;;;;;;;7.43;52.30;103496.59;5192938;28;20432;-48
2022/03/20 01:46:44;;;;;;;21.40;10.82;;;;;;;7.39;52.45;103498.50;5188907;28;20450;-51
2022/03/20 01:49:18;;;;;;;13.50;9.65;;;;;;;7.37;52.19;103497.72;5196965;28;20415;-57
2022/03/20 01:54:45;;;;;;;13.18;10.00;;;;;;;7.25;52.55;103474.56;5183363;28;20442;-47
2022/03/20 01:57:20;;;;;;;15.55;9.23;;;;;;;7.07;52.47;103451.66;5189734;28;20948;-53
2022/03/20 01:59:53;;;;;;;14.60;9.25;;;;;;;7.27;52.48;103480.59;5198793;28;20437;-54
2022/03/20 02:02:26;;;;;;;11.25;8.48;;;;;;;7.26;52.59;103486.78;5182413;28;20446;-52
2022/03/20 02:05:01;;;;;;;13.30;9.40;;;;;;;7.22;52.65;103479.09;5202961;28;20471;-53
2022/03/20 02:07:36;;;;;;;12.77;8.70;;;;;;;7.20;52.73;103471.25;5202623;28;20449;-50
2022/03/20 02:10:10;;;;;;;14.23;8.52;;;;;;;6.91;52.85;103428.66;5191713;28;20439;-53
2022/03/20 02:12:44;;;;;;;16.88;9.90;;;;;;;6.95;52.66;103433.78;5186867;28;20810;-58
2022/03/20 02:15:17;;;;;;;15.68;9.93;;;;;;;7.16;52.99;103464.44;5189530;28;20402;-50
2022/03/20 02:17:49;;;;;;;16.55;9.18;;;;;;;7.10;53.03;103451.53;5229506;28;20512;-54
2022/03/20 02:20:23;;;;;;;15.90;9.75;;;;;;;7.07;52.89;103455.13;5202229;28;20447;-53
2022/03/20 02:22:57;;;;;;;16.07;9.53;;;;;;;7.10;53.26;103460.28;5193508;28;20446;-54
2022/03/20 02:25:29;;;;;;;14.10;9.73;;;;;;;7.12;53.29;103455.81;5192735;28;20416;-54
2022/03/20 02:28:02;;;;;;;15.80;10.10;;;;;;;7.11;53.00;103435.69;5201994;28;20492;-53
2022/03/20 02:30:34;;;;;;;15.32;9.63;;;;;;;7.10;53.08;103433.16;5202918;28;20540;-54
2022/03/20 02:33:08;;;;;;;17.88;9.45;;;;;;;7.08;53.18;103430.56;5190634;28;20946;-49
2022/03/20 02:35:41;;;;;;;15.25;9.68;;;;;;;7.04;53.26;103429.00;5196962;28;20431;-50
2022/03/20 02:38:15;;;;;;;14.45;9.55;;;;;;;7.02;53.31;103425.56;5188918;28;20411;-52
2022/03/20 02:40:51;;;;;;;17.80;10.50;;;;;;;6.99;53.44;103419.59;5203168;28;20422;-51
2022/03/20 02:43:30;;;;;;;13.00;8.85;;;;;;;6.98;53.66;103412.63;5196199;28;20863;-59
2022/03/20 02:46:02;;;;;;;15.57;8.60;;;;;;;6.91;53.61;103406.78;5208501;28;23290;-54
2022/03/20 02:48:42;;;;;;;17.67;9.43;;;;;;;6.91;53.65;103407.63;5203546;28;20552;-53
2022/03/20 02:51:17;;;;;;;19.35;10.23;;;;;;;6.81;53.89;103389.66;5192937;28;20913;-50
2022/03/20 02:53:50;;;;;;;16.10;10.00;;;;;;;6.84;53.72;103390.38;5195921;27;20428;-50
2022/03/20 02:56:23;;;;;;;16.30;10.07;;;;;;;6.86;53.63;103398.22;5193111;27;20511;-52
2022/03/20 02:58:55;;;;;;;15.77;10.30;;;;;;;6.82;53.83;103392.25;5196873;28;20516;-53
2022/03/20 03:01:29;;;;;;;15.02;9.65;;;;;;;6.81;53.98;103379.16;5201837;28;20509;-52
2022/03/20 03:04:01;;;;;;;17.30;9.10;;;;;;;6.77;54.25;103382.84;5192415;28;20806;-50
2022/03/20 03:06:34;;;;;;;14.88;10.60;;;;;;;6.75;54.21;103382.91;5196365;28;21171;-55
2022/03/20 03:11:58;;;;;;;15.55;10.57;;;;;;;6.74;54.12;103383.81;5191114;28;20397;-53
2022/03/20 03:17:27;;;;;;;16.65;10.80;;;;;;;6.67;54.40;103369.22;5194710;28;20419;-49
2022/03/20 03:20:00;;;;;;;21.45;11.65;;;;;;;6.65;54.42;103376.31;5200039;28;20435;-51
2022/03/20 03:22:32;;;;;;;18.13;12.18;;;;;;;6.63;54.62;103370.28;5192638;28;20512;-56
2022/03/20 03:25:08;;;;;;;19.02;12.35;;;;;;;6.58;54.50;103357.31;5199106;28;20473;-49
2022/03/20 03:27:40;;;;;;;15.95;10.48;;;;;;;6.60;54.62;103359.91;5193517;28;20511;-48
2022/03/20 03:30:14;;;;;;;21.17;11.88;;;;;;;6.57;54.71;103350.38;5192779;28;20452;-50
2022/03/20 03:32:47;;;;;;;20.20;12.82;;;;;;;6.40;54.66;103330.03;5191505;28;20414;-49
2022/03/20 03:38:12;;;;;;;20.20;13.05;;;;;;;6.47;54.54;103328.00;5191773;28;20403;-57
2022/03/20 03:40:48;;;;;;;19.27;12.55;;;;;;;6.50;54.73;103333.13;5191602;28;20415;-51
2022/03/20 03:43:21;;;;;;;21.47;13.30;;;;;;;6.44;54.70;103323.75;5193947;28;20791;-59
2022/03/20 03:45:54;;;;;;;20.60;13.38;;;;;;;6.41;54.81;103333.50;5196859;28;20453;-53
2022/03/20 03:48:26;;;;;;;20.77;12.77;;;;;;;6.47;54.55;103334.13;5200462;28;20871;-51
2022/03/20 03:50:59;;;;;;;24.98;14.27;;;;;;;6.47;54.53;103323.63;5192994;28;20464;-52
2022/03/20 03:53:31;;;;;;;19.52;12.75;;;;;;;6.43;54.81;103322.03;5184028;28;20540;-49
2022/03/20 03:56:06;;;;;;;21.30;13.80;;;;;;;6.41;54.56;103316.00;5195672;28;20939;-52
2022/03/20 03:58:38;;;;;;;22.05;14.38;;;;;;;6.39;54.64;103320.44;5187005;28;20492;-49
2022/03/20 04:01:10;;;;;;;25.58;14.57;;;;;;;6.40;54.58;103326.56;5193833;28;20409;-53
2022/03/20 04:03:43;;;;;;;19.57;13.03;;;;;;;6.34;54.62;103319.78;5194382;28;20893;-50
2022/03/20 04:06:16;;;;;;;22.95;14.23;;;;;;;6.23;54.77;103296.59;5189347;28;20426;-57
2022/03/20 04:08:49;;;;;;;21.53;13.77;;;;;;;6.21;54.60;103290.53;5197057;28;20522;-53
2022/03/20 04:11:23;;;;;;;23.35;13.68;;;;;;;6.30;54.72;103306.84;5191631;28;20413;-51
2022/03/20 04:13:56;;;;;;;22.38;13.80;;;;;;;6.30;54.58;103291.94;5194585;28;20500;-50
2022/03/20 04:16:28;;;;;;;22.30;14.50;;;;;;;6.27;54.70;103297.31;5204133;28;20424;-49
2022/03/20 04:19:01;;;;;;;19.88;14.07;;;;;;;6.16;54.63;103282.03;5204589;28;20509;-49
2022/03/20 04:21:34;;;;;;;23.27;14.57;;;;;;;6.17;54.58;103285.50;5194399;28;20462;-51
2022/03/20 04:24:08;;;;;;;26.05;14.75;;;;;;;6.24;54.44;103289.56;5198180;28;20535;-50
2022/03/20 04:26:42;;;;;;;21.10;14.18;;;;;;;6.23;54.66;103283.47;5195505;28;20422;-51
2022/03/20 04:29:14;;;;;;;19.05;13.70;;;;;;;6.22;54.59;103273.03;5200942;28;20478;-52
2022/03/20 04:31:47;;;;;;;25.17;12.68;;;;;;;6.20;54.55;103272.25;5199443;28;20422;-49
2022/03/20 04:34:20;;;;;;;23.00;15.00;;;;;;;6.19;54.33;103270.53;5200838;28;20424;-56
2022/03/20 04:36:53;;;;;;;22.17;14.27;;;;;;;6.16;54.51;103286.38;5190384;28;20431;-57
2022/03/20 04:39:25;;;;;;;20.80;14.45;;;;;;;6.15;54.28;103285.53;5199608;28;20658;-51
2022/03/20 04:41:59;;;;;;;20.20;13.95;;;;;;;6.05;54.49;103265.00;5193470;28;20483;-56
2022/03/20 04:44:32;;;;;;;22.55;15.68;;;;;;;6.12;54.35;103264.66;5186773;28;21752;-56
2022/03/20 04:47:05;;;;;;;21.30;14.95;;;;;;;6.09;54.50;103269.19;5194085;28;20489;-51
2022/03/20 05:00:58;;;;;;;22.73;15.18;;;;;;;5.86;54.70;103242.06;5190502;28;20407;-50
2022/03/20 05:03:34;;;;;;;23.80;15.05;;;;;;;5.91;54.44;103245.34;5191204;28;20418;-52
2022/03/20 05:06:07;;;;;;;24.23;15.70;;;;;;;5.87;54.52;103241.16;5199900;28;20892;-52
2022/03/20 05:08:40;;;;;;;22.45;15.20;;;;;;;5.85;54.55;103240.34;5201139;28;20437;-52
2022/03/20 05:14:03;;;;;;;22.30;15.70;;;;;;;5.72;54.86;103223.38;5188813;28;20456;-53
2022/03/20 05:16:35;;;;;;;22.63;15.73;;;;;;;5.75;54.69;103224.13;5200865;28;20425;-52
2022/03/20 05:19:08;;;;;;;25.65;15.75;;;;;;;5.76;54.69;103217.09;5204791;28;20428;-51
2022/03/20 05:21:41;;;;;;;21.20;15.23;;;;;;;5.75;54.50;103204.91;5202020;28;20764;-49
2022/03/20 05:24:13;;;;;;;24.85;15.55;;;;;;;5.71;54.61;103213.81;5198331;28;20417;-47
2022/03/20 05:26:45;;;;;;;22.48;16.65;;;;;;;5.66;54.67;103192.16;5201211;28;20405;-53
2022/03/20 05:29:19;;;;;;;23.42;16.75;;;;;;;5.69;54.88;103207.78;5199289;28;20403;-50
2022/03/20 05:31:52;;;;;;;25.85;16.25;;;;;;;5.59;54.89;103177.59;5203636;28;20419;-52
2022/03/20 05:34:25;;;;;;;23.20;15.87;;;;;;;5.58;55.05;103183.78;5199261;28;20511;-50
2022/03/20 05:36:57;;;;;;;24.20;15.10;;;;;;;5.28;54.77;103139.47;5190496;28;20418;-57
2022/03/20 05:39:30;;;;;;;23.80;15.68;;;;;;;5.38;54.85;103164.41;5199718;28;20475;-49
2022/03/20 05:42:03;;;;;;;22.05;16.15;;;;;;;5.58;54.88;103173.28;5196529;28;20506;-52
2022/03/20 05:44:37;;;;;;;24.48;15.52;;;;;;;5.51;54.92;103173.53;5210346;28;20490;-49
2022/03/20 05:47:10;;;;;;;27.10;18.35;;;;;;;5.55;54.98;103169.84;5196840;28;20417;-49
2022/03/20 05:49:42;;;;;;;22.83;15.80;;;;;;;5.59;54.94;103174.97;5207026;28;20402;-49
2022/03/20 05:52:16;;;;;;;26.83;16.70;;;;;;;5.51;54.85;103156.91;5205026;28;20433;-50
2022/03/20 05:54:48;;;;;;;24.30;16.17;;;;;;;5.55;54.72;103185.59;5202212;28;20425;-49
2022/03/20 06:00:16;;;;;;;32.65;16.73;;;;;;;5.47;54.74;103171.06;5191928;28;20407;-56
2022/03/20 06:02:48;;;;;;;23.50;16.57;;;;;;;5.51;54.68;103168.28;5202637;28;20413;-50
2022/03/20 06:05:21;;;;;;;24.13;16.80;;;;;;;5.51;54.75;103168.28;5201420;28;20443;-58
2022/03/20 06:07:54;;;;;;;23.95;15.20;;;;;;;5.45;54.74;103165.91;5194715;28;20417;-48
2022/03/20 06:10:26;;;;;;;36.03;16.80;;;;;;;5.51;54.79;103157.81;5202988;28;20421;-55
2022/03/20 06:12:59;;;;;;;24.17;16.70;;;;;;;5.50;54.78;103169.16;5194391;28;20428;-52
2022/03/20 06:15:34;;;;;;;23.13;16.70;;;;;;;5.54;54.57;103169.91;5204183;28;20420;-51
2022/03/20 06:18:07;;;;;;;25.87;15.83;;;;;;;5.54;54.54;103152.44;5204625;28;20456;-51
2022/03/20 06:20:39;;;;;;;27.58;17.02;;;;;;;5.55;54.49;103166.38;5206228;28;20492;-56
2022/03/20 06:23:12;;;;;;;23.85;17.15;;;;;;;5.50;54.72;103163.94;5201322;28;20393;-51
2022/03/20 06:25:44;;;;;;;23.48;16.70;;;;;;;5.52;54.67;103154.25;5197115;28;20546;-51
2022/03/20 06:28:17;;;;;;;25.35;17.48;;;;;;;5.53;54.61;103155.09;5188697;28;20491;-56
2022/03/20 06:30:50;;;;;;;23.58;16.50;;;;;;;5.58;54.85;103155.78;5189869;28;20610;-55
2022/03/20 06:33:25;;;;;;;26.98;18.02;;;;;;;5.61;54.71;103146.94;5206408;28;20980;-52
2022/03/20 06:35:58;;;;;;;23.70;17.42;;;;;;;5.64;54.39;103144.22;5196273;28;20459;-50
2022/03/20 06:38:30;;;;;;;28.27;17.77;;;;;;;5.64;54.71;103141.59;5194322;28;20419;-52
2022/03/20 06:41:03;;;;;;;28.02;18.13;;;;;;;5.67;54.54;103141.47;5201709;28;20490;-52
2022/03/20 06:43:36;;;;;;;31.27;17.73;;;;;;;5.36;54.51;103095.50;5202753;28;20560;-50
2022/03/20 06:46:10;;;;;;;29.88;18.75;;;;;;;5.71;54.53;103141.25;5205683;28;20488;-52
2022/03/20 06:48:43;;;;;;;23.95;17.42;;;;;;;5.60;54.70;103105.91;5201182;28;20421;-52
2022/03/20 06:51:17;;;;;;;26.63;16.48;;;;;;;5.79;54.36;103130.44;5200059;28;20401;-52
2022/03/20 06:53:49;;;;;;;27.33;18.37;;;;;;;5.74;54.50;103122.78;5190821;28;20975;-50
2022/03/20 06:56:22;;;;;;;27.52;18.42;;;;;;;5.90;54.35;103141.38;5190599;28;20436;-51
2022/03/20 06:58:54;;;;;;;27.60;18.02;;;;;;;5.95;54.21;103142.06;5192866;28;20448;-54
2022/03/20 07:01:30;;;;;;;29.37;17.73;;;;;;;5.99;54.44;103133.16;5194542;28;20548;-52
2022/03/20 07:04:02;;;;;;;24.85;16.67;;;;;;;6.03;54.19;103133.03;5192246;28;20450;-62
2022/03/20 07:06:34;;;;;;;25.80;18.23;;;;;;;6.06;54.15;103140.78;5201008;28;20458;-53
2022/03/20 07:09:07;;;;;;;25.83;17.80;;;;;;;6.09;54.13;103132.78;5193361;28;20408;-50
2022/03/20 07:11:39;;;;;;;26.70;17.52;;;;;;;6.13;54.00;103131.72;5198391;28;20481;-54
2022/03/20 07:14:13;;;;;;;29.42;17.83;;;;;;;6.14;54.01;103121.16;5203303;28;20418;-49
2022/03/20 07:16:47;;;;;;;26.45;18.27;;;;;;;6.36;53.72;103126.34;5195461;28;20896;-51
2022/03/20 07:19:22;;;;;;;25.42;19.13;;;;;;;6.43;53.66;103122.53;5201000;28;20413;-48
2022/03/20 07:21:55;;;;;;;26.10;16.47;;;;;;;6.62;53.32;103103.34;5181265;28;20500;-56
2022/03/20 07:24:27;;;;;;;22.80;16.90;;;;;;;6.67;53.43;103106.63;5184235;28;20415;-56
2022/03/20 07:29:50;;;;;;;24.80;17.63;;;;;;;6.69;53.06;103110.06;5197102;28;20406;-57
2022/03/20 07:32:25;;;;;;;31.77;18.35;;;;;;;6.67;53.10;103098.75;5205545;28;20842;-52
2022/03/20 07:34:57;;;;;;;30.58;18.40;;;;;;;7.12;52.74;103101.06;5194983;28;20641;-56
2022/03/20 07:37:30;;;;;;;30.20;18.75;;;;;;;7.45;52.31;103104.78;5187467;28;20528;-56
2022/03/20 07:40:02;;;;;;;30.85;18.52;;;;;;;7.76;51.85;103081.28;5193036;28;20448;-53
2022/03/20 07:42:35;;;;;;;25.77;17.40;;;;;;;7.91;51.57;103066.53;5201009;28;20888;-49
2022/03/20 07:45:09;;;;;;;26.67;18.40;;;;;;;7.98;51.57;103064.44;5200725;28;20956;-51
2022/03/20 07:47:43;;;;;;;25.17;17.15;;;;;;;8.55;50.89;103059.75;5193152;28;20477;-52
2022/03/20 07:50:15;;;;;;;25.83;16.38;;;;;;;9.08;50.20;103031.38;5195189;28;20882;-54
2022/03/20 07:52:50;;;;;;;24.85;16.15;;;;;;;9.49;49.59;103014.97;5188549;28;20516;-52
2022/03/20 07:55:23;;;;;;;22.90;15.40;;;;;;;10.01;48.92;103027.72;5201849;28;20528;-51
2022/03/20 07:57:55;;;;;;;22.92;16.05;;;;;;;9.99;48.65;103030.44;5195472;28;20428;-52
2022/03/20 08:00:28;;;;;;;23.48;15.80;;;;;;;10.10;48.60;103030.66;5197443;28;20425;-57
2022/03/20 08:03:02;;;;;;;23.38;16.30;;;;;;;10.74;47.91;103027.63;5197360;28;20462;-49
2022/03/20 08:05:35;;;;;;;26.05;15.90;;;;;;;10.80;47.09;102991.06;5200596;28;20461;-50
2022/03/20 08:08:11;;;;;;;24.67;15.30;;;;;;;11.21;46.94;103032.53;5198615;28;20787;-48
2022/03/20 08:10:44;;;;;;;26.35;15.30;;;;;;;11.17;46.58;103041.59;5194029;28;20984;-51
2022/03/20 08:13:16;;;;;;;20.83;13.97;;;;;;;11.21;46.30;103029.00;5194709;28;20420;-47
2022/03/20 08:15:49;;;;;;;24.40;15.98;;;;;;;11.26;46.07;103025.13;5194742;28;20492;-51
2022/03/20 08:18:23;;;;;;;24.95;15.65;;;;;;;11.49;45.57;103015.66;5196902;28;20539;-52
2022/03/20 08:20:55;;;;;;;21.95;15.75;;;;;;;11.65;45.19;103020.78;5205479;28;20417;-50
2022/03/20 08:23:28;;;;;;;24.02;15.40;;;;;;;11.74;44.95;103014.88;5202443;28;20909;-56
2022/03/20 08:26:00;;;;;;;25.42;16.45;;;;;;;11.91;44.65;103032.25;5205545;28;20496;-55
2022/03/20 08:28:32;;;;;;;23.95;16.23;;;;;;;12.11;44.41;103030.03;5202108;28;20520;-49
2022/03/20 08:31:05;;;;;;;24.45;16.45;;;;;;;12.16;44.25;103004.09;5196393;28;20485;-47
2022/03/20 08:33:41;;;;;;;24.77;15.63;;;;;;;11.98;44.13;103006.22;5202370;28;20417;-57
2022/03/20 08:36:14;;;;;;;21.63;15.27;;;;;;;11.50;44.22;102966.22;5200274;28;20490;-51
2022/03/20 08:38:47;;;;;;;25.77;15.95;;;;;;;11.67;44.03;103002.97;5203813;28;20411;-56
2022/03/20 08:41:20;;;;;;;24.80;16.67;;;;;;;11.32;43.99;102961.22;5201035;28;20437;-50
2022/03/20 08:43:53;;;;;;;23.60;16.13;;;;;;;11.52;43.98;102981.06;5200142;28;20921;-53
2022/03/20 08:46:25;;;;;;;25.38;17.73;;;;;;;11.69;44.01;102979.06;5192748;28;20752;-56
2022/03/20 08:49:03;;;;;;;28.80;16.25;;;;;;;11.90;43.81;102982.91;5204338;28;20429;-54
2022/03/20 08:51:38;;;;;;;25.25;16.35;;;;;;;11.85;43.62;102989.47;5199857;28;20431;-52
2022/03/20 08:54:11;;;;;;;25.35;16.08;;;;;;;11.86;43.74;102985.88;5198748;28;20763;-48
2022/03/20 08:56:44;;;;;;;24.83;16.65;;;;;;;11.79;43.70;102972.19;5203561;28;20409;-55
2022/03/20 08:59:16;;;;;;;24.52;16.55;;;;;;;11.52;43.97;102962.53;5205844;28;20441;-53
2022/03/20 09:01:49;;;;;;;27.15;17.10;;;;;;;11.25;44.13;102959.09;5198155;28;20477;-50
2022/03/20 09:04:23;;;;;;;24.63;15.95;;;;;;;10.90;44.28;102969.34;5205378;28;20479;-55
2022/03/20 09:06:55;;;;;;;25.17;17.05;;;;;;;10.27;44.61;102960.13;5229664;28;20473;-48
2022/03/20 09:09:28;;;;;;;24.35;17.25;;;;;;;9.53;45.01;102932.91;5227877;28;20412;-51
2022/03/20 09:12:01;;;;;;;29.45;18.00;;;;;;;8.98;45.29;102941.41;5227879;28;20580;-57
2022/03/20 09:14:34;;;;;;;27.77;19.25;;;;;;;8.72;45.32;102956.91;5227559;28;20420;-53
2022/03/20 09:19:59;;;;;;;28.23;18.70;;;;;;;8.18;46.03;102959.00;5230263;28;20402;-50
2022/03/20 09:22:32;;;;;;;31.88;20.10;;;;;;;8.03;46.01;102954.53;5226300;28;20491;-51
2022/03/20 09:25:05;;;;;;;31.45;19.77;;;;;;;8.02;45.86;102955.44;5236639;28;20412;-54
2022/03/20 09:27:37;;;;;;;30.13;20.67;;;;;;;8.07;45.81;102937.66;5229780;28;20475;-55
2022/03/20 09:30:11;;;;;;;32.60;20.92;;;;;;;8.04;45.66;102917.59;5224936;28;20815;-62
2022/03/20 09:32:44;;;;;;;31.17;22.45;;;;;;;7.99;45.47;102909.13;5222020;28;20403;-48
2022/03/20 09:35:19;;;;;;;30.08;19.58;;;;;;;7.95;46.05;102886.50;5227437;28;20748;-48
2022/03/20 09:37:52;;;;;;;29.50;19.73;;;;;;;7.94;46.04;102881.34;5227301;28;20822;-51
2022/03/20 09:40:24;;;;;;;29.13;19.25;;;;;;;8.01;45.81;102869.56;5225860;28;20827;-58
2022/03/20 09:42:57;;;;;;;28.20;20.80;;;;;;;8.04;45.98;102882.53;5225111;28;20430;-54
2022/03/20 09:45:30;;;;;;;31.40;22.00;;;;;;;7.97;45.88;102875.91;5227513;28;20448;-59
2022/03/20 09:48:04;;;;;;;29.50;19.73;;;;;;;8.11;45.63;102885.69;5227981;28;20446;-50
2022/03/20 09:50:39;;;;;;;28.70;19.35;;;;;;;8.15;45.76;102917.03;5227033;28;20498;-52
2022/03/20 09:53:11;;;;;;;30.57;20.07;;;;;;;8.03;45.68;102920.31;5221610;28;20499;-52
2022/03/20 09:55:44;;;;;;;33.50;21.08;;;;;;;7.84;45.96;102918.66;5222442;28;20828;-54
2022/03/20 09:58:17;;;;;;;30.38;21.90;;;;;;;7.69;45.82;102902.84;5211010;28;20417;-58
2022/03/20 10:01:10;;;;;;;36.10;23.95;;;;;;;7.77;45.91;102919.94;5212442;28;20953;-62
2022/03/20 10:03:49;;;;;;;31.70;21.90;;;;;;;7.77;46.00;102930.47;5222376;28;21309;-52
2022/03/20 10:06:25;;;;;;;32.13;22.02;;;;;;;7.80;45.68;102922.41;5222797;28;20760;-52
2022/03/20 10:09:24;;;;;;;30.60;19.73;;;;;;;7.68;45.87;102904.63;5220271;28;20760;-56
2022/03/20 10:12:06;;;;;;;29.95;21.13;;;;;;;7.70;45.73;102907.16;5222679;28;20420;-51
2022/03/20 10:15:36;;;;;;;34.58;22.52;;;;;;;7.75;45.76;102916.53;5225698;28;20434;-53
2022/03/20 10:18:23;;;;;;;27.38;19.13;;;;;;;7.75;45.85;102921.78;5221792;28;20411;-51
2022/03/20 10:21:12;;;;;;;33.17;20.92;;;;;;;7.81;45.74;102921.47;5214972;28;20422;-53
2022/03/20 10:23:46;;;;;;;32.55;21.58;;;;;;;7.83;45.75;102909.09;5231050;28;20780;-57
2022/03/20 10:26:19;;;;;;;31.42;21.73;;;;;;;7.89;45.53;102909.69;5223054;28;20418;-52
2022/03/20 10:28:52;;;;;;;30.90;21.83;;;;;;;7.77;45.49;102871.72;5220703;28;20443;-50
2022/03/20 10:31:25;;;;;;;31.52;21.75;;;;;;;7.90;45.46;102878.03;5225975;28;20418;-50
2022/03/20 10:34:02;;;;;;;31.13;21.35;;;;;;;8.03;45.28;102891.38;5223442;28;20423;-52
2022/03/20 10:40:26;;;;;;;32.50;21.10;;;;;;;8.11;45.24;102868.09;5218116;28;20422;-52
2022/03/20 10:43:18;;;;;;;30.83;21.10;;;;;;;8.06;45.09;102841.22;5225436;28;20886;-59
2022/03/20 10:46:01;;;;;;;32.47;21.97;;;;;;;8.42;44.98;102837.47;5222839;28;20448;-52
2022/03/20 10:48:39;;;;;;;30.85;21.67;;;;;;;8.65;44.67;102829.13;5226557;28;20420;-54
2022/03/20 10:51:12;;;;;;;31.35;20.58;;;;;;;8.77;44.73;102799.44;5205651;28;20425;-52
2022/03/20 10:53:55;;;;;;;30.67;21.65;;;;;;;8.98;44.52;102784.16;5225958;28;20485;-46
2022/03/20 10:56:29;;;;;;;36.07;21.10;;;;;;;9.15;44.47;102791.03;5230014;28;20756;-50
2022/03/20 10:59:13;;;;;;;32.30;21.58;;;;;;;9.29;44.19;102813.94;5227934;28;20934;-49
2022/03/20 11:01:45;;;;;;;36.60;22.20;;;;;;;9.41;44.09;102813.22;5222347;28;20399;-51
2022/03/20 11:04:20;;;;;;;30.58;20.73;;;;;;;9.60;43.87;102806.78;5226013;28;20431;-51
2022/03/20 11:06:54;;;;;;;31.48;21.05;;;;;;;9.67;43.72;102803.66;5227232;28;20503;-50
2022/03/20 11:09:27;;;;;;;33.67;22.05;;;;;;;9.76;43.73;102814.59;5228548;28;20978;-49
2022/03/20 11:12:08;;;;;;;37.57;23.20;;;;;;;9.68;43.63;102810.63;5225195;28;20489;-54
2022/03/20 11:14:43;;;;;;;34.83;22.02;;;;;;;9.80;43.53;102824.00;5225091;28;20910;-54
2022/03/20 11:17:20;;;;;;;29.02;19.58;;;;;;;9.79;43.45;102839.00;5226809;28;20761;-50
2022/03/20 11:19:55;;;;;;;34.20;20.98;;;;;;;9.72;43.21;102821.00;5226190;28;20404;-50
2022/03/20 11:22:29;;;;;;;32.33;21.92;;;;;;;9.74;43.25;102830.50;5223756;28;20499;-48
2022/03/20 11:25:03;;;;;;;32.80;21.05;;;;;;;9.48;43.21;102808.41;5221542;28;20427;-52
2022/03/20 11:27:42;;;;;;;36.92;23.52;;;;;;;9.74;43.25;102850.78;5201098;28;20417;-51
2022/03/20 11:30:15;;;;;;;33.42;22.38;;;;;;;9.72;43.11;102847.38;5223923;28;20407;-48
2022/03/20 11:32:48;;;;;;;33.13;23.08;;;;;;;9.57;43.23;102833.34;5229786;28;20860;-49
2022/03/20 11:35:27;;;;;;;34.53;22.90;;;;;;;9.31;42.95;102806.78;5223639;28;20922;-50
2022/03/20 11:38:16;;;;;;;32.88;20.77;;;;;;;9.50;43.21;102847.84;5225435;28;20427;-52
2022/03/20 11:41:11;;;;;;;31.73;22.42;;;;;;;9.40;43.26;102856.31;5225110;28;20502;-50
2022/03/20 11:44:07;;;;;;;37.78;23.25;;;;;;;9.38;43.08;102859.97;5234086;28;20415;-53
2022/03/20 11:46:42;;;;;;;36.25;24.55;;;;;;;9.38;43.14;102849.44;5210786;28;20415;-55
2022/03/20 11:49:29;;;;;;;46.45;28.27;;;;;;;9.41;42.95;102847.50;5220476;28;20427;-47
2022/03/20 11:52:08;;;;;;;45.38;29.30;;;;;;;9.40;42.91;102842.28;5222817;28;20412;-58
2022/03/20 11:54:57;;;;;;;42.60;27.38;;;;;;;9.28;42.81;102803.47;5223094;28;21520;-54
2022/03/20 11:57:42;;;;;;;43.35;25.80;;;;;;;9.44;42.84;102825.31;5219763;28;20403;-57
2022/03/20 12:00:22;;;;;;;37.95;24.52;;;;;;;9.58;42.73;102835.91;5218702;28;20432;-55
2022/03/20 12:03:59;;;;;;;34.53;23.23;;;;;;;9.75;42.74;102831.34;5220896;28;20518;-55
2022/03/20 12:07:06;;;;;;;37.33;25.15;;;;;;;9.88;42.89;102817.31;5214605;28;20438;-57
2022/03/20 12:10:02;;;;;;;34.40;23.02;;;;;;;10.02;42.64;102829.63;5220782;28;20412;-54
2022/03/20 12:12:59;;;;;;;34.38;22.98;;;;;;;9.98;42.76;102804.38;5220347;28;21227;-56
2022/03/20 12:15:41;;;;;;;34.28;23.80;;;;;;;9.88;43.03;102783.00;5220153;28;20483;-58
2022/03/20 12:18:14;;;;;;;31.45;22.67;;;;;;;9.99;42.94;102795.50;5218797;28;20913;-56
2022/03/20 12:21:04;;;;;;;37.40;24.42;;;;;;;10.01;42.99;102801.53;5219045;28;20871;-52
2022/03/20 12:23:45;;;;;;;36.85;25.83;;;;;;;10.06;43.29;102809.16;5227442;28;20454;-56
2022/03/20 12:26:33;;;;;;;36.25;24.00;;;;;;;10.19;43.16;102819.78;5224245;28;20783;-51
2022/03/20 12:29:32;;;;;;;40.20;25.30;;;;;;;10.26;43.13;102807.88;5226450;28;20400;-54
2022/03/20 12:32:11;;;;;;;35.83;23.98;;;;;;;10.27;42.92;102801.69;5227749;28;20388;-55